Accueil
METAR-TAF:

METAR-TAF

Aéroports :

Aéroport international d'Argyle

Saint-Vincent, Saint-Vincent-et-les-Grenadines

latitude: 13-09-23N, longitude: 061-09-01W, altitude: 41 m

Observation

Le bulletin a été fait il y a 10 heures et 36 minutes, à 22:00 UTC
Vent 5 kt de est, variant entre nord-est et sud-est
Température 28°C
Humidité 79%
Pression 1014 hPa
Visibilité 10 km ou plus
Nuages fragmentés à une hauteur de 2000 ft

METAR: TVSA 282200Z 08005KT 040V130 9999 BKN020 28/24 Q1014 NOSIG

Heure: 04:36 (08:36 UTC)

Prévision

Le bulletin a été fait il y a 3 heures et 36 minutes, à 05:00 UTC
Prévision valable du 29 à 06 UTC au 30 à 06 UTC
Vent 12 kt de est/sud-est
Visibilité 10 km ou plus
Nuages épars à une hauteur de 2000 ft
Probabilité 30% :
Temporairement
du 29 à 12 UTC au 29 à 18 UTC
Nuages fragmentés à une hauteur de 1500 ft

TAF: TVSA 290500Z 2906/3006 11012KT 9999 SCT020 PROB30 TEMPO 2912/2918 BKN015

Observations et prévisions météorologiques de plus de 4000 aéroports (messages METAR et TAF).

Les stations disponibles sont représentées par des disques jaunes et rouges sur la carte.

Passer la souris dessus pour voir le nom de la station.

Cliquer dessus pour voir les observations et prévisions météorologiques.

Pour changer de carte: cliquez sur les boutons verts avec une croix noire pour zoomer, sur le bouton vert avec un tiret pour effectuer un zoom arrière, ou sur les flèches vertes pour les cartes adjacentes.


METAR-TAF: